sensor_id;sensor_type;location;lat;lon;timestamp;pressure;altitude;pressure_sealevel;temperature;humidity
57606;BME280;43430;48.204;11.556;2022-09-17T00:02:21;95554.78;;;8.95;100.00
57606;BME280;43430;48.204;11.556;2022-09-17T00:04:50;95562.25;;;8.98;100.00
57606;BME280;43430;48.204;11.556;2022-09-17T00:07:16;95559.25;;;8.95;100.00
57606;BME280;43430;48.204;11.556;2022-09-17T00:09:41;95563.03;;;8.99;100.00
57606;BME280;43430;48.204;11.556;2022-09-17T00:12:08;95571.09;;;8.86;100.00
57606;BME280;43430;48.204;11.556;2022-09-17T00:14:33;95567.06;;;8.83;100.00
57606;BME280;43430;48.204;11.556;2022-09-17T00:16:58;95563.41;;;8.84;100.00
57606;BME280;43430;48.204;11.556;2022-09-17T00:19:23;95550.63;;;8.88;100.00
57606;BME280;43430;48.204;11.556;2022-09-17T00:21:50;95553.16;;;8.94;100.00
57606;BME280;43430;48.204;11.556;2022-09-17T00:24:17;95547.47;;;8.97;100.00
57606;BME280;43430;48.204;11.556;2022-09-17T00:26:43;95541.50;;;8.90;100.00
57606;BME280;43430;48.204;11.556;2022-09-17T00:29:09;95540.34;;;8.86;100.00
57606;BME280;43430;48.204;11.556;2022-09-17T00:31:35;95539.91;;;8.89;100.00
57606;BME280;43430;48.204;11.556;2022-09-17T00:34:01;95536.25;;;8.90;100.00
57606;BME280;43430;48.204;11.556;2022-09-17T00:36:28;95527.78;;;8.88;100.00
57606;BME280;43430;48.204;11.556;2022-09-17T00:38:55;95538.22;;;8.95;100.00
57606;BME280;43430;48.204;11.556;2022-09-17T00:41:23;95534.56;;;8.96;100.00
57606;BME280;43430;48.204;11.556;2022-09-17T00:48:52;95529.91;;;8.79;100.00
57606;BME280;43430;48.204;11.556;2022-09-17T00:51:23;95540.66;;;8.78;100.00
57606;BME280;43430;48.204;11.556;2022-09-17T00:53:51;95534.47;;;8.84;100.00
57606;BME280;43430;48.204;11.556;2022-09-17T00:56:23;95543.13;;;8.73;100.00
57606;BME280;43430;48.204;11.556;2022-09-17T00:58:50;95543.56;;;8.70;100.00
57606;BME280;43430;48.204;11.556;2022-09-17T01:01:16;95550.72;;;8.63;100.00
57606;BME280;43430;48.204;11.556;2022-09-17T01:03:45;95549.78;;;8.57;100.00
57606;BME280;43430;48.204;11.556;2022-09-17T01:20:31;95552.34;;;8.64;100.00
57606;BME280;43430;48.204;11.556;2022-09-17T01:28:40;95559.41;;;8.82;100.00
57606;BME280;43430;48.204;11.556;2022-09-17T01:31:16;95560.06;;;8.77;100.00
57606;BME280;43430;48.204;11.556;2022-09-17T01:36:51;95556.19;;;8.79;100.00
57606;BME280;43430;48.204;11.556;2022-09-17T01:39:42;95550.72;;;8.81;100.00
57606;BME280;43430;48.204;11.556;2022-09-17T01:47:42;95548.81;;;8.88;100.00
57606;BME280;43430;48.204;11.556;2022-09-17T01:50:16;95546.75;;;8.90;100.00
57606;BME280;43430;48.204;11.556;2022-09-17T01:52:44;95547.78;;;8.89;100.00
57606;BME280;43430;48.204;11.556;2022-09-17T01:55:14;95541.22;;;8.98;100.00
57606;BME280;43430;48.204;11.556;2022-09-17T01:57:50;95534.56;;;8.96;100.00
57606;BME280;43430;48.204;11.556;2022-09-17T02:00:17;95535.34;;;8.96;100.00
57606;BME280;43430;48.204;11.556;2022-09-17T02:02:58;95537.28;;;8.89;100.00
57606;BME280;43430;48.204;11.556;2022-09-17T02:05:33;95531.97;;;8.77;100.00
57606;BME280;43430;48.204;11.556;2022-09-17T02:08:13;95533.13;;;8.82;100.00
57606;BME280;43430;48.204;11.556;2022-09-17T02:10:48;95538.59;;;8.80;100.00
57606;BME280;43430;48.204;11.556;2022-09-17T02:13:25;95542.59;;;8.83;100.00
57606;BME280;43430;48.204;11.556;2022-09-17T02:16:00;95541.66;;;8.77;100.00
57606;BME280;43430;48.204;11.556;2022-09-17T02:21:53;95536.19;;;8.60;100.00
57606;BME280;43430;48.204;11.556;2022-09-17T02:24:29;95528.81;;;8.69;100.00
57606;BME280;43430;48.204;11.556;2022-09-17T02:27:04;95532.75;;;8.78;100.00
57606;BME280;43430;48.204;11.556;2022-09-17T02:29:39;95525.84;;;8.65;100.00
57606;BME280;43430;48.204;11.556;2022-09-17T02:32:06;95527.94;;;8.56;100.00
57606;BME280;43430;48.204;11.556;2022-09-17T02:34:32;95517.50;;;8.68;100.00
57606;BME280;43430;48.204;11.556;2022-09-17T02:36:59;95521.59;;;8.46;100.00
57606;BME280;43430;48.204;11.556;2022-09-17T02:39:26;95517.25;;;8.40;100.00
57606;BME280;43430;48.204;11.556;2022-09-17T02:48:10;95494.97;;;8.42;100.00
57606;BME280;43430;48.204;11.556;2022-09-17T02:56:44;95491.16;;;8.20;100.00
57606;BME280;43430;48.204;11.556;2022-09-17T02:59:39;95484.44;;;8.24;100.00
57606;BME280;43430;48.204;11.556;2022-09-17T03:04:38;95465.75;;;8.14;100.00
57606;BME280;43430;48.204;11.556;2022-09-17T03:07:06;95474.88;;;8.11;100.00
57606;BME280;43430;48.204;11.556;2022-09-17T03:09:33;95467.41;;;8.08;100.00
57606;BME280;43430;48.204;11.556;2022-09-17T03:11:59;95463.94;;;7.96;100.00
57606;BME280;43430;48.204;11.556;2022-09-17T03:14:24;95472.00;;;7.94;100.00
57606;BME280;43430;48.204;11.556;2022-09-17T03:16:50;95471.38;;;7.99;100.00
57606;BME280;43430;48.204;11.556;2022-09-17T03:19:15;95465.69;;;8.02;100.00
57606;BME280;43430;48.204;11.556;2022-09-17T03:21:40;95468.00;;;8.10;100.00
57606;BME280;43430;48.204;11.556;2022-09-17T03:24:06;95453.63;;;7.94;100.00
57606;BME280;43430;48.204;11.556;2022-09-17T03:26:32;95460.88;;;7.99;100.00
57606;BME280;43430;48.204;11.556;2022-09-17T03:28:57;95463.41;;;7.87;100.00
57606;BME280;43430;48.204;11.556;2022-09-17T03:31:23;95466.06;;;7.80;100.00
57606;BME280;43430;48.204;11.556;2022-09-17T03:33:48;95469.50;;;7.81;100.00
57606;BME280;43430;48.204;11.556;2022-09-17T03:36:14;95479.75;;;7.89;100.00
57606;BME280;43430;48.204;11.556;2022-09-17T03:38:40;95482.31;;;7.96;100.00
57606;BME280;43430;48.204;11.556;2022-09-17T03:41:05;95480.31;;;7.91;100.00
57606;BME280;43430;48.204;11.556;2022-09-17T03:43:32;95479.13;;;7.87;100.00
57606;BME280;43430;48.204;11.556;2022-09-17T03:45:58;95478.31;;;7.68;100.00
57606;BME280;43430;48.204;11.556;2022-09-17T03:48:24;95478.75;;;7.65;100.00
57606;BME280;43430;48.204;11.556;2022-09-17T03:50:50;95484.50;;;7.74;100.00
57606;BME280;43430;48.204;11.556;2022-09-17T03:53:16;95467.56;;;7.51;100.00
57606;BME280;43430;48.204;11.556;2022-09-17T03:55:41;95473.66;;;7.45;100.00
57606;BME280;43430;48.204;11.556;2022-09-17T03:58:07;95476.28;;;7.45;100.00
57606;BME280;43430;48.204;11.556;2022-09-17T04:00:32;95476.84;;;7.54;100.00
57606;BME280;43430;48.204;11.556;2022-09-17T04:02:58;95471.97;;;7.57;100.00
57606;BME280;43430;48.204;11.556;2022-09-17T04:05:23;95477.78;;;7.59;100.00
57606;BME280;43430;48.204;11.556;2022-09-17T04:07:49;95486.94;;;7.50;100.00
57606;BME280;43430;48.204;11.556;2022-09-17T04:10:14;95485.59;;;7.41;100.00
57606;BME280;43430;48.204;11.556;2022-09-17T04:12:40;95482.78;;;7.36;100.00
57606;BME280;43430;48.204;11.556;2022-09-17T04:15:06;95478.94;;;7.38;100.00
57606;BME280;43430;48.204;11.556;2022-09-17T04:17:31;95481.38;;;7.40;100.00
57606;BME280;43430;48.204;11.556;2022-09-17T04:19:57;95483.34;;;7.45;100.00
57606;BME280;43430;48.204;11.556;2022-09-17T04:22:23;95485.97;;;7.45;100.00
57606;BME280;43430;48.204;11.556;2022-09-17T04:24:48;95484.19;;;7.38;100.00
57606;BME280;43430;48.204;11.556;2022-09-17T04:27:13;95483.81;;;7.35;100.00
57606;BME280;43430;48.204;11.556;2022-09-17T04:29:39;95478.06;;;7.26;100.00
57606;BME280;43430;48.204;11.556;2022-09-17T04:32:04;95486.50;;;7.28;100.00
57606;BME280;43430;48.204;11.556;2022-09-17T04:34:30;95480.81;;;7.31;100.00
57606;BME280;43430;48.204;11.556;2022-09-17T04:36:58;95476.56;;;7.37;100.00
57606;BME280;43430;48.204;11.556;2022-09-17T04:39:23;95474.09;;;7.42;100.00
57606;BME280;43430;48.204;11.556;2022-09-17T04:41:49;95483.16;;;7.40;100.00
57606;BME280;43430;48.204;11.556;2022-09-17T04:44:14;95479.28;;;7.49;100.00
57606;BME280;43430;48.204;11.556;2022-09-17T04:46:39;95482.38;;;7.39;100.00
57606;BME280;43430;48.204;11.556;2022-09-17T04:49:05;95485.47;;;7.29;100.00
57606;BME280;43430;48.204;11.556;2022-09-17T04:51:30;95493.75;;;7.33;100.00
57606;BME280;43430;48.204;11.556;2022-09-17T04:53:55;95500.69;;;7.46;100.00
57606;BME280;43430;48.204;11.556;2022-09-17T04:56:21;95502.50;;;7.45;100.00
57606;BME280;43430;48.204;11.556;2022-09-17T04:58:46;95519.44;;;7.49;100.00
57606;BME280;43430;48.204;11.556;2022-09-17T05:01:11;95532.66;;;7.61;100.00
57606;BME280;43430;48.204;11.556;2022-09-17T05:03:38;95553.44;;;7.63;100.00
57606;BME280;43430;48.204;11.556;2022-09-17T05:06:03;95574.59;;;7.68;100.00
57606;BME280;43430;48.204;11.556;2022-09-17T05:08:29;95588.69;;;7.73;100.00
57606;BME280;43430;48.204;11.556;2022-09-17T05:10:54;95602.78;;;7.79;100.00
57606;BME280;43430;48.204;11.556;2022-09-17T05:13:20;95608.38;;;7.89;100.00
57606;BME280;43430;48.204;11.556;2022-09-17T05:15:46;95596.25;;;7.88;100.00
57606;BME280;43430;48.204;11.556;2022-09-17T05:18:11;95595.44;;;7.88;100.00
57606;BME280;43430;48.204;11.556;2022-09-17T05:20:36;95603.50;;;7.93;100.00
57606;BME280;43430;48.204;11.556;2022-09-17T05:23:02;95604.34;;;7.87;100.00
57606;BME280;43430;48.204;11.556;2022-09-17T05:25:28;95611.41;;;7.86;100.00
57606;BME280;43430;48.204;11.556;2022-09-17T05:27:53;95618.22;;;7.94;100.00
57606;BME280;43430;48.204;11.556;2022-09-17T05:30:20;95626.66;;;8.02;100.00
57606;BME280;43430;48.204;11.556;2022-09-17T05:32:45;95620.41;;;7.97;100.00
57606;BME280;43430;48.204;11.556;2022-09-17T05:35:11;95631.25;;;8.07;100.00
57606;BME280;43430;48.204;11.556;2022-09-17T05:37:37;95639.50;;;8.11;100.00
57606;BME280;43430;48.204;11.556;2022-09-17T05:40:03;95651.81;;;8.10;100.00
57606;BME280;43430;48.204;11.556;2022-09-17T05:42:31;95650.78;;;8.11;100.00
57606;BME280;43430;48.204;11.556;2022-09-17T05:44:56;95639.06;;;8.14;100.00
57606;BME280;43430;48.204;11.556;2022-09-17T05:47:21;95640.34;;;8.04;100.00
57606;BME280;43430;48.204;11.556;2022-09-17T05:49:47;95648.22;;;8.04;100.00
57606;BME280;43430;48.204;11.556;2022-09-17T05:52:12;95644.97;;;8.09;100.00
57606;BME280;43430;48.204;11.556;2022-09-17T05:54:37;95636.06;;;8.10;100.00
57606;BME280;43430;48.204;11.556;2022-09-17T05:57:04;95643.53;;;8.13;100.00
57606;BME280;43430;48.204;11.556;2022-09-17T05:59:30;95638.41;;;8.18;100.00
57606;BME280;43430;48.204;11.556;2022-09-17T06:01:55;95642.38;;;8.27;100.00
57606;BME280;43430;48.204;11.556;2022-09-17T06:04:21;95640.41;;;8.23;100.00
57606;BME280;43430;48.204;11.556;2022-09-17T06:06:46;95643.66;;;8.18;100.00
57606;BME280;43430;48.204;11.556;2022-09-17T06:09:11;95637.50;;;8.31;100.00
57606;BME280;43430;48.204;11.556;2022-09-17T06:11:37;95638.66;;;8.17;100.00
57606;BME280;43430;48.204;11.556;2022-09-17T06:14:03;95637.28;;;8.07;100.00
57606;BME280;43430;48.204;11.556;2022-09-17T06:16:29;95628.25;;;8.03;100.00
57606;BME280;43430;48.204;11.556;2022-09-17T06:18:54;95616.47;;;8.13;100.00
57606;BME280;43430;48.204;11.556;2022-09-17T06:21:21;95621.06;;;8.17;100.00
57606;BME280;43430;48.204;11.556;2022-09-17T06:23:48;95619.41;;;8.23;100.00
57606;BME280;43430;48.204;11.556;2022-09-17T06:26:13;95617.78;;;8.22;100.00
57606;BME280;43430;48.204;11.556;2022-09-17T06:28:38;95627.28;;;8.23;100.00
57606;BME280;43430;48.204;11.556;2022-09-17T06:31:06;95627.97;;;8.37;100.00
57606;BME280;43430;48.204;11.556;2022-09-17T06:33:32;95615.44;;;8.39;100.00
57606;BME280;43430;48.204;11.556;2022-09-17T06:36:06;95611.53;;;8.48;100.00
57606;BME280;43430;48.204;11.556;2022-09-17T06:38:33;95624.16;;;8.32;100.00
57606;BME280;43430;48.204;11.556;2022-09-17T06:40:59;95624.06;;;8.21;100.00
57606;BME280;43430;48.204;11.556;2022-09-17T06:43:25;95624.81;;;8.28;100.00
57606;BME280;43430;48.204;11.556;2022-09-17T06:45:58;95620.63;;;8.20;100.00
57606;BME280;43430;48.204;11.556;2022-09-17T06:48:25;95623.47;;;8.19;100.00
57606;BME280;43430;48.204;11.556;2022-09-17T06:50:51;95622.66;;;8.18;100.00
57606;BME280;43430;48.204;11.556;2022-09-17T06:53:19;95628.38;;;8.08;100.00
57606;BME280;43430;48.204;11.556;2022-09-17T06:55:45;95629.41;;;8.07;100.00
57606;BME280;43430;48.204;11.556;2022-09-17T06:58:10;95630.06;;;8.28;100.00
57606;BME280;43430;48.204;11.556;2022-09-17T07:00:36;95638.53;;;8.30;100.00
57606;BME280;43430;48.204;11.556;2022-09-17T07:03:01;95636.16;;;8.22;100.00
57606;BME280;43430;48.204;11.556;2022-09-17T07:05:28;95635.16;;;8.23;100.00
57606;BME280;43430;48.204;11.556;2022-09-17T07:07:55;95625.50;;;8.17;100.00
57606;BME280;43430;48.204;11.556;2022-09-17T07:10:21;95619.47;;;8.16;100.00
57606;BME280;43430;48.204;11.556;2022-09-17T07:12:47;95605.97;;;8.13;100.00
57606;BME280;43430;48.204;11.556;2022-09-17T07:15:15;95607.88;;;8.24;100.00
57606;BME280;43430;48.204;11.556;2022-09-17T07:17:41;95608.28;;;8.46;100.00
57606;BME280;43430;48.204;11.556;2022-09-17T07:20:09;95607.00;;;8.73;100.00
57606;BME280;43430;48.204;11.556;2022-09-17T07:22:35;95603.00;;;8.89;100.00
57606;BME280;43430;48.204;11.556;2022-09-17T07:25:00;95599.34;;;8.90;100.00
57606;BME280;43430;48.204;11.556;2022-09-17T07:27:27;95591.31;;;8.85;100.00
57606;BME280;43430;48.204;11.556;2022-09-17T07:29:56;95599.78;;;8.69;100.00
57606;BME280;43430;48.204;11.556;2022-09-17T07:32:22;95600.81;;;8.68;100.00
57606;BME280;43430;48.204;11.556;2022-09-17T07:34:47;95610.06;;;8.70;100.00
57606;BME280;43430;48.204;11.556;2022-09-17T07:37:14;95595.84;;;8.78;100.00
57606;BME280;43430;48.204;11.556;2022-09-17T07:39:39;95590.84;;;9.07;100.00
57606;BME280;43430;48.204;11.556;2022-09-17T07:42:05;95590.34;;;8.98;100.00
57606;BME280;43430;48.204;11.556;2022-09-17T07:44:31;95575.09;;;8.88;100.00
57606;BME280;43430;48.204;11.556;2022-09-17T07:46:56;95574.00;;;8.96;100.00
57606;BME280;43430;48.204;11.556;2022-09-17T07:49:21;95576.56;;;9.02;100.00
57606;BME280;43430;48.204;11.556;2022-09-17T07:51:47;95573.03;;;9.09;100.00
57606;BME280;43430;48.204;11.556;2022-09-17T07:54:14;95576.31;;;9.22;100.00
57606;BME280;43430;48.204;11.556;2022-09-17T07:56:40;95571.31;;;9.33;100.00
57606;BME280;43430;48.204;11.556;2022-09-17T07:59:05;95579.75;;;9.35;100.00
57606;BME280;43430;48.204;11.556;2022-09-17T08:01:31;95575.38;;;9.28;97.17
57606;BME280;43430;48.204;11.556;2022-09-17T08:04:01;95576.41;;;9.27;98.23
57606;BME280;43430;48.204;11.556;2022-09-17T08:06:27;95580.63;;;9.47;100.00
57606;BME280;43430;48.204;11.556;2022-09-17T08:08:57;95582.47;;;9.46;98.89
57606;BME280;43430;48.204;11.556;2022-09-17T08:11:27;95593.25;;;9.57;97.32
57606;BME280;43430;48.204;11.556;2022-09-17T08:14:09;95591.44;;;9.69;93.98
57606;BME280;43430;48.204;11.556;2022-09-17T08:16:35;95588.06;;;9.92;93.79
57606;BME280;43430;48.204;11.556;2022-09-17T08:19:01;95588.91;;;10.28;95.90
57606;BME280;43430;48.204;11.556;2022-09-17T08:21:37;95592.00;;;10.36;91.03
57606;BME280;43430;48.204;11.556;2022-09-17T08:24:11;95588.19;;;10.20;90.00
57606;BME280;43430;48.204;11.556;2022-09-17T08:27:05;95589.53;;;10.11;87.29
57606;BME280;43430;48.204;11.556;2022-09-17T08:29:33;95596.19;;;10.14;89.34
57606;BME280;43430;48.204;11.556;2022-09-17T08:31:58;95593.22;;;9.98;88.74
57606;BME280;43430;48.204;11.556;2022-09-17T08:34:24;95598.50;;;9.98;89.21
57606;BME280;43430;48.204;11.556;2022-09-17T08:36:52;95615.13;;;9.69;86.10
57606;BME280;43430;48.204;11.556;2022-09-17T08:39:17;95603.44;;;9.65;87.25
57606;BME280;43430;48.204;11.556;2022-09-17T08:42:10;95605.72;;;9.61;86.14
57606;BME280;43430;48.204;11.556;2022-09-17T08:44:42;95618.44;;;9.64;88.27
57606;BME280;43430;48.204;11.556;2022-09-17T08:49:58;95632.50;;;9.58;87.42
57606;BME280;43430;48.204;11.556;2022-09-17T09:05:50;95635.16;;;9.70;91.34
57606;BME280;43430;48.204;11.556;2022-09-17T09:08:49;95641.78;;;9.61;88.32
57606;BME280;43430;48.204;11.556;2022-09-17T09:11:25;95638.50;;;9.47;88.88
57606;BME280;43430;48.204;11.556;2022-09-17T09:14:02;95638.44;;;9.54;91.41
57606;BME280;43430;48.204;11.556;2022-09-17T09:16:31;95650.69;;;9.60;87.91
57606;BME280;43430;48.204;11.556;2022-09-17T09:24:26;95645.25;;;9.43;89.43
57606;BME280;43430;48.204;11.556;2022-09-17T09:26:59;95649.59;;;9.49;89.50
57606;BME280;43430;48.204;11.556;2022-09-17T09:34:53;95656.59;;;9.25;92.02
57606;BME280;43430;48.204;11.556;2022-09-17T09:37:33;95668.56;;;9.39;95.36
57606;BME280;43430;48.204;11.556;2022-09-17T09:40:15;95662.72;;;9.37;94.61
57606;BME280;43430;48.204;11.556;2022-09-17T09:42:43;95669.66;;;9.32;96.77
57606;BME280;43430;48.204;11.556;2022-09-17T09:45:13;95664.84;;;9.10;97.88
57606;BME280;43430;48.204;11.556;2022-09-17T09:47:56;95675.44;;;9.22;100.00
57606;BME280;43430;48.204;11.556;2022-09-17T09:50:48;95679.88;;;8.66;100.00
57606;BME280;43430;48.204;11.556;2022-09-17T09:53:24;95681.81;;;8.52;100.00
57606;BME280;43430;48.204;11.556;2022-09-17T09:58:48;95708.50;;;8.49;100.00
57606;BME280;43430;48.204;11.556;2022-09-17T10:01:18;95711.56;;;8.15;100.00
57606;BME280;43430;48.204;11.556;2022-09-17T10:03:48;95714.00;;;8.16;100.00
57606;BME280;43430;48.204;11.556;2022-09-17T10:06:17;95712.97;;;8.17;100.00
57606;BME280;43430;48.204;11.556;2022-09-17T10:11:24;95719.56;;;8.58;100.00
57606;BME280;43430;48.204;11.556;2022-09-17T10:13:50;95723.63;;;8.79;100.00
57606;BME280;43430;48.204;11.556;2022-09-17T10:21:37;95735.69;;;8.37;100.00
57606;BME280;43430;48.204;11.556;2022-09-17T10:26:42;95722.34;;;8.38;100.00
57606;BME280;43430;48.204;11.556;2022-09-17T10:29:13;95722.75;;;8.35;100.00
57606;BME280;43430;48.204;11.556;2022-09-17T10:31:51;95738.06;;;8.45;100.00
57606;BME280;43430;48.204;11.556;2022-09-17T10:34:29;95715.28;;;8.39;100.00
57606;BME280;43430;48.204;11.556;2022-09-17T10:36:55;95708.19;;;8.39;100.00
57606;BME280;43430;48.204;11.556;2022-09-17T10:42:00;95716.38;;;8.99;100.00
57606;BME280;43430;48.204;11.556;2022-09-17T10:44:28;95690.13;;;8.93;100.00
57606;BME280;43430;48.204;11.556;2022-09-17T10:47:01;95692.31;;;8.77;100.00
57606;BME280;43430;48.204;11.556;2022-09-17T10:52:28;95705.47;;;8.77;100.00
57606;BME280;43430;48.204;11.556;2022-09-17T11:17:01;95722.06;;;8.46;100.00
57606;BME280;43430;48.204;11.556;2022-09-17T11:19:47;95720.72;;;8.44;100.00
57606;BME280;43430;48.204;11.556;2022-09-17T11:22:51;95728.44;;;8.32;100.00
57606;BME280;43430;48.204;11.556;2022-09-17T11:25:39;95729.03;;;8.02;100.00
57606;BME280;43430;48.204;11.556;2022-09-17T11:36:26;95750.91;;;7.45;100.00
57606;BME280;43430;48.204;11.556;2022-09-17T11:38:56;95737.75;;;7.58;100.00
57606;BME280;43430;48.204;11.556;2022-09-17T11:41:30;95736.25;;;7.75;100.00
57606;BME280;43430;48.204;11.556;2022-09-17T11:46:33;95735.28;;;8.01;100.00
57606;BME280;43430;48.204;11.556;2022-09-17T11:49:14;95724.50;;;8.16;100.00
57606;BME280;43430;48.204;11.556;2022-09-17T11:51:47;95720.72;;;8.37;100.00
57606;BME280;43430;48.204;11.556;2022-09-17T11:54:41;95707.66;;;8.55;100.00
57606;BME280;43430;48.204;11.556;2022-09-17T11:57:18;95697.56;;;8.52;100.00
57606;BME280;43430;48.204;11.556;2022-09-17T12:03:03;95683.78;;;8.82;100.00
57606;BME280;43430;48.204;11.556;2022-09-17T12:05:39;95674.84;;;9.01;100.00
57606;BME280;43430;48.204;11.556;2022-09-17T12:08:15;95663.09;;;8.86;100.00
57606;BME280;43430;48.204;11.556;2022-09-17T12:11:05;95648.56;;;8.83;100.00
57606;BME280;43430;48.204;11.556;2022-09-17T12:13:41;95664.50;;;8.88;100.00
57606;BME280;43430;48.204;11.556;2022-09-17T12:16:17;95659.31;;;8.82;100.00
57606;BME280;43430;48.204;11.556;2022-09-17T12:18:51;95663.53;;;9.01;100.00
57606;BME280;43430;48.204;11.556;2022-09-17T12:21:29;95646.59;;;8.97;100.00
57606;BME280;43430;48.204;11.556;2022-09-17T12:26:50;95648.56;;;9.01;100.00
57606;BME280;43430;48.204;11.556;2022-09-17T12:31:57;95645.50;;;9.04;100.00
57606;BME280;43430;48.204;11.556;2022-09-17T12:48:33;95632.47;;;9.88;100.00
57606;BME280;43430;48.204;11.556;2022-09-17T12:57:01;95622.94;;;9.75;100.00
57606;BME280;43430;48.204;11.556;2022-09-17T12:59:33;95620.63;;;9.67;100.00
57606;BME280;43430;48.204;11.556;2022-09-17T13:02:13;95627.13;;;9.65;100.00
57606;BME280;43430;48.204;11.556;2022-09-17T13:16:02;95588.41;;;10.07;100.00
57606;BME280;43430;48.204;11.556;2022-09-17T13:21:38;95585.78;;;10.66;100.00
57606;BME280;43430;48.204;11.556;2022-09-17T13:24:19;95582.16;;;10.43;99.94
57606;BME280;43430;48.204;11.556;2022-09-17T13:26:47;95581.13;;;10.44;100.00
57606;BME280;43430;48.204;11.556;2022-09-17T13:40:31;95574.59;;;10.47;81.29
57606;BME280;43430;48.204;11.556;2022-09-17T13:43:09;95577.34;;;10.40;83.19
57606;BME280;43430;48.204;11.556;2022-09-17T13:48:30;95585.94;;;10.48;88.76
57606;BME280;43430;48.204;11.556;2022-09-17T13:50:56;95589.72;;;10.52;90.35
57606;BME280;43430;48.204;11.556;2022-09-17T13:53:53;95595.09;;;10.57;96.47
57606;BME280;43430;48.204;11.556;2022-09-17T13:56:44;95597.50;;;10.47;93.51
57606;BME280;43430;48.204;11.556;2022-09-17T13:59:14;95589.94;;;10.38;98.36
57606;BME280;43430;48.204;11.556;2022-09-17T14:01:59;95597.19;;;10.43;100.00
57606;BME280;43430;48.204;11.556;2022-09-17T14:21:23;95597.38;;;10.65;100.00
57606;BME280;43430;48.204;11.556;2022-09-17T14:23:55;95592.16;;;10.93;99.11
57606;BME280;43430;48.204;11.556;2022-09-17T14:32:17;95594.31;;;11.08;82.30
57606;BME280;43430;48.204;11.556;2022-09-17T14:34:46;95609.00;;;11.04;84.86
57606;BME280;43430;48.204;11.556;2022-09-17T14:37:16;95601.06;;;10.64;76.66
57606;BME280;43430;48.204;11.556;2022-09-17T14:39:44;95597.75;;;10.57;79.29
57606;BME280;43430;48.204;11.556;2022-09-17T14:42:26;95598.78;;;10.44;81.61
57606;BME280;43430;48.204;11.556;2022-09-17T14:44:59;95597.28;;;10.48;83.52
57606;BME280;43430;48.204;11.556;2022-09-17T14:47:26;95609.06;;;10.22;83.66
57606;BME280;43430;48.204;11.556;2022-09-17T14:49:52;95612.06;;;10.26;85.18
57606;BME280;43430;48.204;11.556;2022-09-17T14:52:29;95601.38;;;10.32;88.02
57606;BME280;43430;48.204;11.556;2022-09-17T14:57:40;95596.13;;;10.56;87.92
57606;BME280;43430;48.204;11.556;2022-09-17T15:00:11;95600.94;;;10.59;84.54
57606;BME280;43430;48.204;11.556;2022-09-17T15:02:41;95606.09;;;10.65;83.81
57606;BME280;43430;48.204;11.556;2022-09-17T15:08:03;95614.47;;;10.74;83.52
57606;BME280;43430;48.204;11.556;2022-09-17T15:10:29;95615.59;;;10.66;84.04
57606;BME280;43430;48.204;11.556;2022-09-17T15:12:55;95633.03;;;10.56;83.42
57606;BME280;43430;48.204;11.556;2022-09-17T15:15:23;95626.50;;;10.47;86.31
57606;BME280;43430;48.204;11.556;2022-09-17T15:17:51;95623.06;;;10.46;84.96
57606;BME280;43430;48.204;11.556;2022-09-17T15:20:23;95625.13;;;10.44;87.65
57606;BME280;43430;48.204;11.556;2022-09-17T15:22:54;95635.78;;;10.26;86.29
57606;BME280;43430;48.204;11.556;2022-09-17T15:25:22;95634.22;;;10.06;87.50
57606;BME280;43430;48.204;11.556;2022-09-17T15:27:53;95653.44;;;9.95;91.27
57606;BME280;43430;48.204;11.556;2022-09-17T15:30:21;95644.84;;;9.99;92.20
57606;BME280;43430;48.204;11.556;2022-09-17T15:32:57;95652.41;;;10.08;88.87
57606;BME280;43430;48.204;11.556;2022-09-17T15:35:27;95647.25;;;10.01;89.06
57606;BME280;43430;48.204;11.556;2022-09-17T15:38:02;95658.09;;;9.81;88.09
57606;BME280;43430;48.204;11.556;2022-09-17T15:40:33;95656.34;;;9.75;87.14
57606;BME280;43430;48.204;11.556;2022-09-17T15:45:39;95659.16;;;9.62;87.77
57606;BME280;43430;48.204;11.556;2022-09-17T15:50:58;95658.66;;;9.53;89.07
57606;BME280;43430;48.204;11.556;2022-09-17T15:53:32;95661.69;;;9.38;90.06
57606;BME280;43430;48.204;11.556;2022-09-17T15:58:29;95657.22;;;9.57;90.35
57606;BME280;43430;48.204;11.556;2022-09-17T16:08:45;95662.72;;;9.37;92.77
57606;BME280;43430;48.204;11.556;2022-09-17T16:11:12;95664.91;;;9.40;95.29
57606;BME280;43430;48.204;11.556;2022-09-17T16:13:38;95669.38;;;9.40;95.97
57606;BME280;43430;48.204;11.556;2022-09-17T16:16:03;95665.19;;;9.50;95.63
57606;BME280;43430;48.204;11.556;2022-09-17T16:18:29;95667.91;;;9.44;94.69
57606;BME280;43430;48.204;11.556;2022-09-17T16:20:54;95667.25;;;9.30;96.38
57606;BME280;43430;48.204;11.556;2022-09-17T16:23:19;95669.44;;;9.15;96.63
57606;BME280;43430;48.204;11.556;2022-09-17T16:25:45;95669.97;;;9.23;94.45
57606;BME280;43430;48.204;11.556;2022-09-17T16:28:12;95667.41;;;9.17;95.18
57606;BME280;43430;48.204;11.556;2022-09-17T16:30:41;95667.34;;;9.23;96.10
57606;BME280;43430;48.204;11.556;2022-09-17T16:33:10;95676.56;;;9.33;93.80
57606;BME280;43430;48.204;11.556;2022-09-17T16:35:35;95677.28;;;9.40;91.45
57606;BME280;43430;48.204;11.556;2022-09-17T16:38:02;95679.47;;;9.43;92.57
57606;BME280;43430;48.204;11.556;2022-09-17T16:40:28;95668.88;;;9.31;89.17
57606;BME280;43430;48.204;11.556;2022-09-17T16:42:54;95678.00;;;9.47;88.84
57606;BME280;43430;48.204;11.556;2022-09-17T16:45:19;95691.44;;;9.39;89.63
57606;BME280;43430;48.204;11.556;2022-09-17T16:47:45;95690.63;;;9.38;90.95
57606;BME280;43430;48.204;11.556;2022-09-17T16:50:14;95694.16;;;9.32;91.05
57606;BME280;43430;48.204;11.556;2022-09-17T16:52:41;95685.16;;;9.21;90.88
57606;BME280;43430;48.204;11.556;2022-09-17T16:55:07;95696.28;;;9.05;91.81
57606;BME280;43430;48.204;11.556;2022-09-17T16:57:33;95702.63;;;8.97;93.63